Terminal Aerodrome Forecast
Issued by NWS

Home | Current Version | Previous Version | Text Only | Print | Product List | Glossary On
Versions: 1 2 3 4 5 6 7 8 9 10 11 12 13 14 15
381
FTAK31 PAJN 222327
TAFAWG
TAF
PAWG 222327Z 2300/2324 VRB03KT P6SM VCSH SCT008 OVC025
     FM230600 VRB05KT 6SM BR VCSH SCT005 OVC012
     FM230900 VRB02KT 4SM -RA BR BKN005 OVC010
      AMD LTD TO CLD VIS AND WIND 2306/2315=

USA.gov is the U.S. government's official web portal to all federal, state and local government web resources and services.